Terminal Aerodrome Forecast
Issued by NWS

Home | Current Version | Previous Version | Graphics & Text | Print | Product List | Glossary On
Versions: 1 2 3 4 5 6 7 8 9 10 11 12 13 14 15 16
363
FTUS45 KGGW 132320
TAFSDY
TAF
KSDY 132320Z 1400/1424 30010KT P6SM SCT110
     FM140700 30012KT P6SM OVC030
     FM141000 32014KT P6SM OVC015
     FM141100 32015KT P6SM OVC020
     FM142300 29009KT P6SM SCT030=

USA.gov is the U.S. government's official web portal to all federal, state and local government web resources and services.